地図

経路データ

SID SEASON NUMBER BASIN SUBBASIN NAME ISO_TIME NATURE LAT LON WMO_WIND WMO_PRES WMO_AGENCY TRACK_TYPE DIST2LAND LANDFALL IFLAG USA_AGENCY USA_ATCF_ID USA_LAT USA_LON USA_RECORD USA_STATUS USA_WIND USA_PRES USA_SSHS USA_R34_NE USA_R34_SE USA_R34_SW USA_R34_NW USA_R50_NE USA_R50_SE USA_R50_SW USA_R50_NW USA_R64_NE USA_R64_SE USA_R64_SW USA_R64_NW USA_POCI USA_ROCI USA_RMW USA_EYE TOKYO_LAT TOKYO_LON TOKYO_GRADE TOKYO_WIND TOKYO_PRES TOKYO_R50_DIR TOKYO_R50_LONG TOKYO_R50_SHORT TOKYO_R30_DIR TOKYO_R30_LONG TOKYO_R30_SHORT TOKYO_LAND CMA_LAT CMA_LON CMA_CAT CMA_WIND CMA_PRES HKO_LAT HKO_LON HKO_CAT HKO_WIND HKO_PRES NEWDELHI_LAT NEWDELHI_LON NEWDELHI_GRADE NEWDELHI_WIND NEWDELHI_PRES NEWDELHI_CI NEWDELHI_DP NEWDELHI_POCI REUNION_LAT REUNION_LON REUNION_TYPE REUNION_WIND REUNION_PRES REUNION_TNUM REUNION_CI REUNION_RMW REUNION_R34_NE REUNION_R34_SE REUNION_R34_SW REUNION_R34_NW REUNION_R50_NE REUNION_R50_SE REUNION_R50_SW REUNION_R50_NW REUNION_R64_NE REUNION_R64_SE REUNION_R64_SW REUNION_R64_NW BOM_LAT BOM_LON BOM_TYPE BOM_WIND BOM_PRES BOM_TNUM BOM_CI BOM_RMW BOM_R34_NE BOM_R34_SE BOM_R34_SW BOM_R34_NW BOM_R50_NE BOM_R50_SE BOM_R50_SW BOM_R50_NW BOM_R64_NE BOM_R64_SE BOM_R64_SW BOM_R64_NW BOM_ROCI BOM_POCI BOM_EYE BOM_POS_METHOD BOM_PRES_METHOD NADI_LAT NADI_LON NADI_CAT NADI_WIND NADI_PRES WELLINGTON_LAT WELLINGTON_LON WELLINGTON_WIND WELLINGTON_PRES DS824_LAT DS824_LON DS824_STAGE DS824_WIND DS824_PRES TD9636_LAT TD9636_LON TD9636_STAGE TD9636_WIND TD9636_PRES TD9635_LAT TD9635_LON TD9635_WIND TD9635_PRES TD9635_ROCI NEUMANN_LAT NEUMANN_LON NEUMANN_CLASS NEUMANN_WIND NEUMANN_PRES MLC_LAT MLC_LON MLC_CLASS MLC_WIND MLC_PRES USA_GUST BOM_GUST BOM_GUST_PER REUNION_GUST REUNION_GUST_PER USA_SEAHGT USA_SEARAD_NE USA_SEARAD_SE USA_SEARAD_SW USA_SEARAD_NW STORM_SPEED STORM_DIR
1986333N04179 1986 115 WP MM LEX 1986-11-29 00:00:00 NR 4.20000 178.600 main 2198 2198 __________O___ -1 4.20000 178.600 0 5 274
1986333N04179 1986 115 WP MM LEX 1986-11-29 03:00:00 NR 4.21723 178.363 main 2208 2208 __________P___ -1 4.21723 178.363 0 5 274
1986333N04179 1986 115 WP MM LEX 1986-11-29 06:00:00 NR 4.23754 178.120 main 2223 2223 __________P___ -1 4.23754 178.120 0 5 275
1986333N04179 1986 115 WP MM LEX 1986-11-29 09:00:00 NR 4.26408 177.867 main 2243 2243 __________P___ -1 4.26408 177.867 0 5 277
1986333N04179 1986 115 WP MM LEX 1986-11-29 12:00:00 NR 4.30000 177.600 main 2258 2258 __________O___ -1 4.30000 177.600 0 6 279
1986333N04179 1986 115 WP MM LEX 1986-11-29 15:00:00 NR 4.34687 177.314 main 2274 2274 __________P___ -1 4.34687 177.314 0 6 280
1986333N04179 1986 115 WP MM LEX 1986-11-29 18:00:00 NR 4.39999 177.015 main 2296 2271 __________P___ -1 4.39999 177.015 0 6 280
1986333N04179 1986 115 WP MM LEX 1986-11-29 21:00:00 NR 4.45311 176.708 main 2278 2253 __________P___ -1 4.45311 176.708 0 6 279
1986333N04179 1986 115 WP MM LEX 1986-11-30 00:00:00 NR 4.50000 176.400 main 2253 2227 __________O___ -1 4.50000 176.400 0 6 277
1986333N04179 1986 115 WP MM LEX 1986-11-30 03:00:00 NR 4.53218 176.088 main 2227 2210 __________P___ -1 4.53218 176.088 0 6 275
1986333N04179 1986 115 WP MM LEX 1986-11-30 06:00:00 NR 4.55750 175.777 main 2210 2185 __________P___ -1 4.55750 175.777 0 6 274
1986333N04179 1986 115 WP MM LEX 1986-11-30 09:00:00 NR 4.57906 175.478 main 2185 2161 __________P___ -1 4.57906 175.478 0 6 274
1986333N04179 1986 115 WP MM LEX 1986-11-30 12:00:00 NR 4.60000 175.200 main 2161 2145 __________O___ -1 4.60000 175.200 0 5 274
1986333N04179 1986 115 WP MM LEX 1986-11-30 15:00:00 NR 4.61670 174.994 main 2145 2129 __________P___ -1 4.61670 174.994 0 4 275
1986333N04179 1986 115 WP MM LEX 1986-11-30 18:00:00 NR 4.63473 174.802 main 2129 2121 __________P___ -1 4.63473 174.802 0 4 276
1986333N04179 1986 115 WP MM LEX 1986-11-30 21:00:00 NR 4.66041 174.585 main 2121 2097 __________P___ -1 4.66041 174.585 0 5 277
1986333N04179 1986 115 WP MM LEX 1986-12-01 00:00:00 NR 4.70000 174.300 main 2097 2066 __________O___ -1 4.70000 174.300 1 7 277
1986333N04179 1986 115 WP MM LEX 1986-12-01 03:00:00 NR 4.74045 173.889 main 2066 2035 __________P___ -1 4.74045 173.889 1 9 276
1986333N04179 1986 115 WP MM LEX 1986-12-01 06:00:00 NR 4.79769 173.410 main 2035 2006 __________P___ -1 4.79769 173.410 1 10 278
1986333N04179 1986 115 WP MM LEX 1986-12-01 09:00:00 NR 4.88106 172.901 main 2006 1978 __________P___ -1 4.88106 172.901 1 10 281
1986333N04179 1986 115 WP MM LEX 1986-12-01 12:00:00 NR 5.00000 172.400 main 1978 1958 __________O___ -1 5.00000 172.400 1 25 10 285
1986333N04179 1986 115 WP MM LEX 1986-12-01 15:00:00 NR 5.12733 171.973 main 1958 1945 __________P___ -1 5.12733 171.973 1 25 9 289
1986333N04179 1986 115 WP MM LEX 1986-12-01 18:00:00 NR 5.29476 171.557 main 1947 1934 __________P___ -1 5.29476 171.557 1 25 9 295
1986333N04179 1986 115 WP MM LEX 1986-12-01 21:00:00 NR 5.51481 171.138 main 1932 1928 __________P___ -1 5.51481 171.138 1 25 10 301
1986333N04179 1986 115 WP MM LEX 1986-12-02 00:00:00 NR 5.80000 170.700 main 1933 1930 __________O___ -1 5.80000 170.700 1 25 11 308
1986333N04179 1986 115 WP MM LEX 1986-12-02 03:00:00 NR 6.20473 170.250 main 1946 1940 __________P___ -1 6.20473 170.250 1 25 13 313
1986333N04179 1986 115 WP MM LEX 1986-12-02 06:00:00 NR 6.66457 169.775 main 1964 1959 __________P___ -1 6.66457 169.775 1 25 13 313
1986333N04179 1986 115 WP MM LEX 1986-12-02 09:00:00 NR 7.11713 169.263 main 1976 1971 __________P___ -1 7.11713 169.263 1 25 14 308
1986333N04179 1986 115 WP MM LEX 1986-12-02 12:00:00 NR 7.50000 168.700 main 1985 1977 __________O___ -1 7.50000 168.700 1 25 14 298
1986333N04179 1986 115 WP MM LEX 1986-12-02 15:00:00 NR 7.75783 168.043 main 1983 1934 __________P___ -1 7.75783 168.043 1 25 16 275
1986333N04179 1986 115 WP MM LEX 1986-12-02 18:00:00 TS 7.64841 167.074 1002 tokyo main 1924 1893 _O________P___ -1 6.50000 166.000 2 1002 0 0 0 7.93551 167.342 1 25 17 263
1986333N04179 1986 115 WP MM LEX 1986-12-02 21:00:00 TS 7.55944 166.293 main 1893 1832 _P________P___ -1 6.58759 165.588 2 1002 0 0 8.04536 166.646 1 25 16 257
1986333N04179 1986 115 WP MM LEX 1986-12-03 00:00:00 TS 7.28889 165.500 1002 tokyo main 1832 1799 _OOO______O___ -1 6.70000 165.200 2 1002 0 0 0 6.00000 165.000 1 23 1002 7.10000 164.900 TD 30 1002 8.10000 166.000 1 25 14 256
1986333N04179 1986 115 WP MM LEX 1986-12-03 03:00:00 TS 7.22053 164.965 main 1799 1774 _PPP______P___ -1 6.84994 164.850 2 1002 0 0 6.25004 164.705 1 23 1001 7.14009 164.445 TD 30 1002 8.11659 165.471 1 25 10 268
1986333N04179 1986 115 WP MM LEX 1986-12-03 06:00:00 TS 7.24621 164.513 1002 tokyo main 1774 1757 _OOO______P___ -1 7.00000 164.500 2 1002 0 0 0 6.50000 164.400 1 23 1000 7.20000 164.000 TD 30 1002 8.08675 164.997 1 25 9 275
1986333N04179 1986 115 WP MM LEX 1986-12-03 09:00:00 TS 7.29525 164.077 main 1757 1741 _PPP______P___ -1 7.09998 164.107 2 1002 0 0 6.74995 164.072 1 23 1000 7.29248 163.578 TD 30 1002 8.03856 164.549 1 25 8 280
1986333N04179 1986 115 WP MM LEX 1986-12-03 12:00:00 TS 7.40000 163.675 1002 tokyo main 1741 1727 _OOO______O___ -1 7.20000 163.700 2 1002 0 0 0 7.00000 163.700 1 23 1000 7.40000 163.200 TD 30 1002 8.00000 164.100 1 25 8 286
1986333N04179 1986 115 WP MM LEX 1986-12-03 15:00:00 TS 7.52068 163.258 main 1727 1708 _PPP______P___ -1 7.34246 163.300 2 1001 0 0 7.25002 163.257 1 26 999 7.49995 162.885 TD 32 1000 7.99030 163.591 1 27 9 289
1986333N04179 1986 115 WP MM LEX 1986-12-03 18:00:00 TS 7.67589 162.854 1000 tokyo main 1716 1695 OOOO______P___ jtwc_wp WP261986 8.10000 163.000 30 -1 7.50000 162.900 2 1000 0 0 0 7.50000 162.800 1 29 998 7.60000 162.600 TS 35 999 7.99752 163.077 1 30 9 290
1986333N04179 1986 115 WP MM LEX 1986-12-03 21:00:00 TS 7.81966 162.448 main 1689 1677 PPPP______P___ WP261986 8.08512 162.540 32 -1 7.64998 162.492 2 999 0 0 7.77248 162.378 1 29 998 7.69248 162.300 TS 37 995 8.03095 162.575 1 32 8 289
1986333N04179 1986 115 WP MM LEX 1986-12-04 00:00:00 TS 7.95263 162.058 35 998 tokyo main 1686 1666 OOOO______O___ jtwc_wp WP261986 8.10000 162.100 35 0 7.80000 162.100 3 35 998 0 9 60 60 0 8.00000 162.000 1 29 998 7.80000 162.000 TS 40 992 8.10000 162.100 2 35 8 289
1986333N04179 1986 115 WP MM LEX 1986-12-04 03:00:00 TS 8.06813 161.707 main 1668 1655 PPPP______P___ WP261986 8.16994 161.692 37 0 7.92743 161.750 3 37 996 0 9 80 80 8.11488 161.707 1 33 996 7.93496 161.707 TS 42 988 8.19343 161.679 2 36 7 290
1986333N04179 1986 115 WP MM LEX 1986-12-04 06:00:00 TS 8.20491 161.357 40 994 tokyo main 1658 1639 OOOO______P___ jtwc_wp WP261986 8.30000 161.300 40 0 8.10000 161.400 3 40 994 0 9 100 100 0 8.20000 161.400 2 38 994 8.10000 161.400 TS 45 985 8.32456 161.285 2 37 8 293
1986333N04179 1986 115 WP MM LEX 1986-12-04 09:00:00 TS 8.38316 160.973 main 1648 1637 PPPP______P___ WP261986 8.46244 160.907 40 0 8.37748 161.008 3 42 994 0 9 100 100 8.31249 160.980 2 38 992 8.26995 161.072 TS 45 985 8.49343 160.898 2 38 9 298
1986333N04179 1986 115 WP MM LEX 1986-12-04 12:00:00 TS 8.62000 160.560 45 994 tokyo main 1639 1633 OOOO______O___ jtwc_wp WP261986 8.70000 160.500 40 0 8.70000 160.600 3 45 994 0 9 100 100 0 8.50000 160.500 2 38 990 8.50000 160.700 TS 45 985 8.70000 160.500 2 40 10 303
1986333N04179 1986 115 WP MM LEX 1986-12-04 15:00:00 TS 8.92963 160.135 main 1636 1636 PPPP______P___ WP261986 9.04997 160.058 37 0 8.99981 160.237 3 47 996 0 9 125 125 8.81997 160.008 2 38 990 8.82741 160.287 TS 42 985 8.95098 160.085 2 38 11 306
1986333N04179 1986 115 WP MM LEX 1986-12-04 18:00:00 TS 9.26692 159.671 50 998 tokyo main 1650 1640 OOOO______P___ jtwc_wp WP261986 9.40000 159.600 35 0 9.30000 159.800 4 50 998 0 9 150 150 0 9.20000 159.500 2 38 990 9.20000 159.800 TS 40 986 9.23458 159.652 2 37 12 304
1986333N04179 1986 115 WP MM LEX 1986-12-04 21:00:00 TS 9.57860 159.163 main 1650 1636 PPPP______P___ WP261986 9.62234 159.172 35 0 9.61501 159.195 4 50 999 0 9 150 150 9.57239 159.007 2 38 990 9.55737 159.245 TS 40 986 9.52590 159.194 2 36 12 299
1986333N04179 1986 115 WP MM LEX 1986-12-05 00:00:00 TS 9.86000 158.600 50 1000 tokyo main 1645 1630 OOOO______O___ jtwc_wp WP261986 9.80000 158.700 35 0 9.90000 158.500 4 50 1000 0 9 150 150 0 9.90000 158.500 2 38 990 9.90000 158.600 TS 40 987 9.80000 158.700 2 35 13 294
1986333N04179 1986 115 WP MM LEX 1986-12-05 03:00:00 TS 10.0956 157.974 main 1635 1620 PPPP______P___ WP261986 10.0000 158.115 32 -1 10.1301 157.777 4 1001 0 9 10.1150 157.950 2 38 992 10.2074 157.880 TS 40 987 10.0257 158.149 2 33 13 290
1986333N04179 1986 115 WP MM LEX 1986-12-05 06:00:00 TS 10.3060 157.333 1002 tokyo main 1620 1611 OOOO______P___ jtwc_wp WP261986 10.2000 157.500 30 -1 10.3000 157.100 2 1002 0 0 0 10.3000 157.400 2 38 995 10.5000 157.100 TS 40 988 10.2302 157.565 2 32 13 289
1986333N04179 1986 115 WP MM LEX 1986-12-05 09:00:00 TS 10.5152 156.748 main 1612 1610 PPPP______P___ WP261986 10.3999 156.935 30 -1 10.4148 156.562 2 1003 0 0 10.5270 156.960 2 38 995 10.8148 156.307 TS 37 989 10.4195 156.974 2 31 12 290
1986333N04179 1986 115 WP MM LEX 1986-12-05 12:00:00 TS 10.7200 156.160 1004 tokyo main 1612 1607 OOOO______O___ jtwc_wp WP261986 10.6000 156.400 30 -1 10.5000 156.100 2 1004 0 0 0 10.8000 156.400 2 38 995 11.1000 155.500 TS 35 990 10.6000 156.400 1 30 13 289
1986333N04179 1986 115 WP MM LEX 1986-12-05 15:00:00 TS 10.9300 155.534 main 1606 1606 PPPP______P___ WP261986 10.8074 155.892 30 -1 10.5773 155.657 2 1004 0 0 11.1580 155.488 2 38 995 11.3223 154.700 TS 35 991 10.7851 155.935 1 30 13 288
1986333N04179 1986 115 WP MM LEX 1986-12-05 18:00:00 TS 11.1326 154.896 1004 tokyo main 1608 1607 OOOO______P___ jtwc_wp WP261986 11.0000 155.400 30 -1 10.7000 155.200 2 1004 0 0 0 11.5000 154.500 2 38 995 11.5000 153.900 TS 35 992 10.9632 155.482 1 30 13 288
1986333N04179 1986 115 WP MM LEX 1986-12-05 21:00:00 TS 11.3197 154.291 main 1613 1610 PPPP______P___ WP261986 11.1572 154.930 30 -1 10.9199 154.680 2 1004 0 0 11.7368 153.750 2 38 995 11.6497 153.107 TS 35 993 11.1348 154.988 1 30 13 287
1986333N04179 1986 115 WP MM LEX 1986-12-06 00:00:00 TS 11.5000 153.640 1004 tokyo main 1618 1614 OOOO______O___ jtwc_wp WP261986 11.3000 154.400 30 -1 11.2000 154.100 2 1004 0 0 0 11.9000 153.000 2 38 995 11.8000 152.300 TS 35 995 11.3000 154.400 1 30 14 284
1986333N04179 1986 115 WP MM LEX 1986-12-06 03:00:00 TS 11.6678 152.898 main 1628 1623 PPPP______P___ WP261986 11.4497 153.775 30 -1 11.4922 153.502 2 1004 0 0 12.0000 152.080 2 38 995 11.9848 151.457 TS 32 997 11.4124 153.677 1 28 16 283
1986333N04179 1986 115 WP MM LEX 1986-12-06 06:00:00 TS 11.8449 152.071 1004 tokyo main 1630 1630 OOOO______P___ jtwc_wp WP261986 11.6000 153.000 30 -1 11.8000 152.800 2 1004 0 0 0 12.1000 151.100 2 38 995 12.2000 150.600 TD 30 999 11.5246 152.855 1 27 17 283
1986333N04179 1986 115 WP MM LEX 1986-12-06 09:00:00 TS 12.0457 151.178 main 1634 1634 PPPP______P___ WP261986 11.7421 152.082 27 -1 12.1075 151.937 2 1004 0 0 12.2696 150.157 2 38 995 12.4347 149.757 TD 30 999 11.6745 151.955 1 26 19 284
1986333N04179 1986 115 WP MM LEX 1986-12-06 12:00:00 TS 12.2800 150.220 1004 tokyo main 1642 1636 OOOO______O___ jtwc_wp WP261986 11.9000 151.000 25 -1 12.4000 151.000 2 1004 0 0 0 12.5000 149.200 2 38 995 12.7000 148.900 TD 30 1000 11.9000 151.000 1 25 20 284
1986333N04179 1986 115 WP MM LEX 1986-12-06 15:00:00 TS 12.5082 149.216 main 1647 1646 PPPP______P___ WP261986 12.0257 149.719 25 -1 12.6571 150.107 2 1004 0 0 12.7246 148.222 2 38 995 12.9774 147.992 TD 30 1000 12.1562 150.038 1 26 20 285
1986333N04179 1986 115 WP MM LEX 1986-12-06 18:00:00 TS 12.8204 148.205 1004 tokyo main 1671 1671 OOOO______P___ jtwc_wp WP261986 12.3000 148.500 25 -1 12.9000 149.200 2 1004 0 0 0 13.1000 147.200 2 38 995 13.3000 147.100 TD 30 1000 12.5019 149.027 1 27 20 292
1986333N04179 1986 115 WP MM LEX 1986-12-06 21:00:00 TS 13.2625 147.289 main 1725 1725 PPPP______P___ WP261986 12.8342 147.810 27 -1 13.1046 148.272 2 1004 0 0 13.7324 146.100 2 38 996 13.6696 146.285 TD 30 1000 12.9715 147.977 1 28 21 299
1986333N04179 1986 115 WP MM LEX 1986-12-07 00:00:00 TS 13.8400 146.320 1004 tokyo main 1781 1781 OOOO______O___ jtwc_wp WP261986 13.6000 146.900 30 -1 13.4000 147.300 2 1004 0 0 0 14.5000 145.000 2 38 998 14.1000 145.500 TD 30 1000 13.6000 146.900 1 30 25 300
1986333N04179 1986 115 WP MM LEX 1986-12-07 03:00:00 TS 14.5226 145.075 main 1867 1867 PPPP______P___ WP261986 14.5042 144.822 30 -1 13.8747 146.272 2 1004 0 0 15.2427 143.910 2 38 998 14.5473 144.692 TD 30 1000 14.4439 145.677 1 28 28 302
1986333N04179 1986 115 WP MM LEX 1986-12-07 06:00:00 TS 15.3069 143.889 1004 tokyo main 1971 1947 OOOO______P___ jtwc_wp WP261986 15.5000 142.900 30 -1 14.5000 145.200 2 1004 0 0 0 16.0000 143.000 2 38 998 15.1000 143.900 TD 30 1000 15.4345 144.443 1 27 25 310
1986333N04179 1986 115 WP MM LEX 1986-12-07 09:00:00 TS 16.1491 143.062 main 1947 1903 PPPP______P___ WP261986 16.5040 142.414 27 -1 15.1823 144.092 2 1004 0 0 16.7719 142.372 2 38 999 15.8049 143.120 TD 30 1000 16.4823 143.311 1 26 22 321
1986333N04179 1986 115 WP MM LEX 1986-12-07 12:00:00 TS 17.0200 142.440 1004 tokyo main 1896 1845 OOOO______O___ jtwc_wp WP261986 17.5000 142.400 25 -1 16.0000 143.000 2 1004 0 0 0 17.5000 142.000 2 38 1000 16.6000 142.400 TD 30 1000 17.5000 142.400 1 25 21 326
1986333N04179 1986 115 WP MM LEX 1986-12-07 15:00:00 TS 17.8578 141.834 main 1831 1733 PPPP______P___ WP261986 18.4378 141.936 25 -1 16.9632 141.837 2 1004 0 0 18.1143 141.878 2 38 1000 17.3773 141.754 TD 30 1000 18.3963 141.763 1 25 20 329
1986333N04179 1986 115 WP MM LEX 1986-12-07 18:00:00 TS 18.7157 141.362 1004 tokyo main 1733 1635 OOOO______P___ jtwc_wp WP261986 19.3000 141.500 25 -1 18.0000 141.000 2 1004 0 0 0 18.7000 141.700 2 38 1000 18.2000 141.200 TD 30 1000 19.2497 141.370 1 25 19 336
1986333N04179 1986 115 WP MM LEX 1986-12-07 21:00:00 TS 19.5544 141.029 main 1624 1547 PPPP______P___ WP261986 20.0723 141.260 25 -1 18.9990 140.811 2 1004 0 0 19.3286 141.001 2 33 1001 19.0827 140.728 TD 30 1001 20.0536 141.192 1 25 17 345
1986333N04179 1986 115 WP MM LEX 1986-12-08 00:00:00 TS 20.3765 140.888 1004 tokyo main 1536 1451 OOOO______O___ jtwc_wp WP261986 20.8000 141.200 25 -1 20.0000 141.000 2 1004 0 0 0 20.0000 140.300 1 29 1002 20.0000 140.300 TD 30 1002 20.8000 141.200 1 25 17 356
1986333N04179 1986 115 WP MM LEX 1986-12-08 03:00:00 TS 21.2240 140.893 main 1451 1374 PPP_______P___ WP261986 21.5873 141.260 25 -1 21.0744 141.138 2 1004 0 0 20.7343 139.970 1 26 1003 TD 21.4998 141.202 1 25 17 9
1986333N04179 1986 115 WP MM LEX 1986-12-08 06:00:00 TS 22.0180 141.171 1004 tokyo main 1378 1332 OOO_______P___ jtwc_wp WP261986 22.3000 141.500 25 -1 22.0000 141.500 2 1004 0 0 0 21.5000 140.000 1 23 1004 22.1426 141.389 1 25 16 28
1986333N04179 1986 115 WP MM LEX 1986-12-08 09:00:00 TS 22.6468 141.702 main 1336 1308 PPP_______P___ WP261986 22.8219 141.839 25 -1 22.5748 142.138 2 1005 0 0 22.2559 140.396 1 23 1004 22.7392 141.782 1 25 17 45
1986333N04179 1986 115 WP MM LEX 1986-12-08 12:00:00 TS 23.2000 142.433 1006 tokyo main 1308 1281 OOO_______O___ jtwc_wp WP261986 23.3000 142.400 25 -1 23.0000 143.000 2 1006 0 0 0 23.0000 141.000 1 23 1004 23.3000 142.400 1 25 19 53
1986333N04179 1986 115 WP MM LEX 1986-12-08 15:00:00 TS 23.7942 143.367 main 1284 1250 PP________P___ WP261986 23.9144 143.180 25 -1 23.4763 143.973 2 1007 0 0 1 23.8330 143.251 1 25 21 56
1986333N04179 1986 115 WP MM LEX 1986-12-08 18:00:00 TS 24.3781 144.334 1008 tokyo main 1245 1230 OO________P___ jtwc_wp WP261986 24.5000 144.200 25 -1 24.0000 145.000 2 1008 0 0 0 24.3417 144.291 1 25 22 59
1986333N04179 1986 115 WP MM LEX 1986-12-08 21:00:00 NR 24.9110 145.399 main 1234 1228 P_________P___ WP261986 24.9518 145.368 25 -1 2 0 0 24.8293 145.461 1 25 23 67
1986333N04179 1986 115 WP MM LEX 1986-12-09 00:00:00 NR 25.3000 146.700 main 1253 1253 O_________O___ jtwc_wp WP261986 25.3000 146.700 25 -1 25.3000 146.700 1 25 26 75
1986333N04179 1986 115 WP MM LEX 1986-12-09 03:00:00 NR 25.5729 148.126 main 1299 1299 P_____________ WP261986 25.5729 148.126 25 -1 1 27 79
1986333N04179 1986 115 WP MM LEX 1986-12-09 06:00:00 NR 25.8000 149.600 main 1367 O_____________ jtwc_wp WP261986 25.8000 149.600 25 -1 1 27 80

デジタル台風データ・検索

IBTrACS Databaseについて

本データベースは、米国NOAAが公開する1842年以降の世界の熱帯低気圧のベストトラックデータアーカイブInternational Best Track Archive for Climate Stewardship (IBTrACS)を、ウェブで閲覧しやすい形式に変換したものです。

最終更新日:2021-10-08